Time;durP1;ratioP1;P1;durP2;ratioP2;P2;SDS_P1;SDS_P2;PMS_P1;PMS_P2;Temp;Humidity;BMP_temperature;BMP_pressure;BME280_temperature;BME280_humidity;BME280_pressure;Samples;Min_cycle;Max_cycle;Signal;HPM_P1;HPM_P2
2023/12/10 07:01:28;;;;;;;5.00;1.30;;;9.70;99.90;11.90;100362.00;;;;6049364;22;5299695;-69
2023/12/10 07:04:17;;;;;;;9.50;2.47;;;9.80;99.90;11.40;100393.00;;;;6281490;22;20153;-69
2023/12/10 07:07:15;;;;;;;6.27;1.00;;;9.70;99.90;11.50;100392.00;;;;6282832;22;20163;-69
2023/12/10 07:10:04;;;;;;;5.80;2.10;;;9.70;99.90;11.70;100391.00;;;;6256706;22;20217;-69
2023/12/10 07:12:35;;;;;;;0.87;0.67;;;9.70;99.90;11.40;100415.00;;;;6282095;22;20179;-69
2023/12/10 07:15:17;;;;;;;4.33;2.70;;;9.70;99.90;11.40;100409.00;;;;6309478;22;20191;-70
2023/12/10 07:18:06;;;;;;;9.33;2.27;;;9.70;99.90;11.50;100415.00;;;;6281627;22;20153;-69
2023/12/10 07:20:58;;;;;;;0.93;0.33;;;9.70;99.90;11.10;100361.00;;;;6284857;22;20236;-69
2023/12/10 07:23:49;;;;;;;4.97;1.23;;;9.50;99.90;11.50;100400.00;;;;6309562;22;20149;-70
2023/12/10 07:26:39;;;;;;;2.03;1.40;;;9.60;99.90;11.50;100423.00;;;;6240491;22;20257;-70
2023/12/10 07:29:31;;;;;;;2.63;2.00;;;9.70;99.90;11.50;100422.00;;;;6282077;22;20226;-69
2023/12/10 07:32:23;;;;;;;12.30;2.87;;;9.70;99.90;10.90;100425.00;;;;6225007;22;20217;-69
2023/12/10 07:35:12;;;;;;;10.47;3.17;;;9.60;99.90;11.30;100424.00;;;;6309018;22;20214;-70
2023/12/10 07:38:21;;;;;;;3.80;1.90;;;9.60;99.90;11.70;100436.00;;;;6159301;23;20166;-70
2023/12/10 07:41:13;;;;;;;6.03;2.87;;;9.60;99.90;11.10;100426.00;;;;6158863;23;20196;-70
2023/12/10 07:43:41;;;;;;;0.60;0.60;;;9.50;99.90;10.80;100433.00;;;;6129938;23;20533;-69
2023/12/10 07:46:13;;;;;;;9.70;2.83;;;9.40;99.90;11.00;100431.00;;;;6293637;22;20187;-70
2023/12/10 07:48:49;;;;;;;0.87;0.87;;;9.50;99.90;11.20;100438.00;;;;6255835;22;20602;-70
2023/12/10 07:51:32;;;;;;;3.07;0.77;;;9.50;99.90;11.30;100442.00;;;;6281566;22;20167;-70
2023/12/10 07:54:30;;;;;;;1.77;1.07;;;9.60;99.90;11.50;100445.00;;;;6283501;22;20147;-70
2023/12/10 07:57:21;;;;;;;6.17;2.27;;;9.70;99.90;10.70;100443.00;;;;6255920;22;20167;-70
2023/12/10 08:00:20;;;;;;;3.27;1.83;;;9.60;99.90;11.20;100466.00;;;;6308799;22;20251;-70
2023/12/10 08:02:46;;;;;;;0.40;0.40;;;9.60;99.90;11.50;100452.00;;;;6308556;22;20163;-70
2023/12/10 08:05:31;;;;;;;3.90;1.97;;;9.60;99.90;11.40;100461.00;;;;6281535;22;20576;-70
2023/12/10 08:08:06;;;;;;;3.63;1.43;;;9.70;99.90;10.80;100449.00;;;;6282188;22;20142;-70
2023/12/10 08:11:26;;;;;;;10.73;1.70;;;9.50;99.90;11.50;100456.00;;;;6281948;22;20194;-70
2023/12/10 08:14:01;;;;;;;5.97;3.13;;;9.60;99.90;11.60;100446.00;;;;6256480;22;20270;-70
2023/12/10 08:16:37;;;;;;;19.07;3.13;;;9.80;99.90;11.30;100448.00;;;;6309166;22;20175;-70
2023/12/10 08:19:35;;;;;;;0.83;0.83;;;9.70;99.90;11.20;100451.00;;;;6309341;22;20227;-70
2023/12/10 08:22:17;;;;;;;2.30;1.13;;;9.60;99.90;11.30;100453.00;;;;6282032;22;20573;-71
2023/12/10 08:24:48;;;;;;;9.03;1.77;;;9.70;99.90;11.70;100464.00;;;;6282245;22;20142;-71
2023/12/10 08:27:37;;;;;;;1.73;0.85;;;9.80;99.90;11.70;100475.00;;;;6280611;22;20747;-70
2023/12/10 08:30:17;;;;;;;3.03;1.50;;;9.90;99.90;11.60;100476.00;;;;6255235;22;20235;-71
2023/12/10 08:32:46;;;;;;;8.07;1.63;;;9.80;99.90;10.90;100464.00;;;;6280618;22;20164;-70
2023/12/10 08:35:17;;;;;;;4.63;2.20;;;9.70;99.90;11.80;100472.00;;;;6255830;22;20251;-70
2023/12/10 08:37:45;;;;;;;2.97;1.83;;;9.90;99.90;11.30;100451.00;;;;6308715;22;20151;-71
2023/12/10 08:40:14;;;;;;;1.27;0.27;;;9.90;99.90;11.40;100457.00;;;;6281362;22;20141;-71
2023/12/10 08:42:40;;;;;;;5.70;2.10;;;9.90;99.90;11.70;100466.00;;;;6281478;22;20156;-71
2023/12/10 08:45:08;;;;;;;10.10;2.40;;;10.00;99.90;11.20;100459.00;;;;6280839;22;20181;-70
2023/12/10 08:47:42;;;;;;;5.77;1.63;;;9.90;99.90;11.90;100430.00;;;;6281540;22;20194;-71
2023/12/10 08:50:08;;;;;;;0.60;0.60;;;10.00;99.90;11.80;100455.00;;;;6280923;22;20802;-71
2023/12/10 08:52:41;;;;;;;6.97;2.40;;;10.10;99.90;11.80;100466.00;;;;6308402;22;20174;-71
2023/12/10 08:55:12;;;;;;;4.60;1.10;;;10.10;99.90;12.20;100467.00;;;;6281250;22;20549;-71
2023/12/10 08:57:39;;;;;;;2.37;2.17;;;10.30;99.90;12.50;100466.00;;;;6254818;22;20164;-70
2023/12/10 09:00:27;;;;;;;7.73;1.80;;;10.30;99.90;11.50;100454.00;;;;6294830;22;20175;-71
2023/12/10 09:02:53;;;;;;;6.93;2.20;;;10.20;99.90;11.70;100442.00;;;;6339801;22;20620;-69
2023/12/10 09:05:58;;;;;;;7.40;1.40;;;10.20;99.90;11.70;100446.00;;;;6339711;22;20174;-71
2023/12/10 09:08:27;;;;;;;2.00;0.60;;;10.20;99.90;11.50;100454.00;;;;6339775;22;20152;-71
2023/12/10 09:10:55;;;;;;;1.63;1.53;;;10.20;99.90;11.90;100441.00;;;;6312199;22;20206;-71
2023/12/10 09:13:27;;;;;;;0.20;0.20;;;10.20;99.90;12.00;100450.00;;;;6338001;22;20255;-71
2023/12/10 09:15:53;;;;;;;2.27;0.57;;;10.20;99.90;13.00;100472.00;;;;6337221;22;20562;-71
2023/12/10 09:18:43;;;;;;;4.10;1.30;;;10.60;99.90;11.80;100459.00;;;;6337066;22;20156;-72
2023/12/10 09:21:15;;;;;;;12.17;2.60;;;10.40;99.90;12.00;100446.00;;;;6337986;22;20494;-72
2023/12/10 09:23:46;;;;;;;7.23;3.17;;;10.40;99.90;11.90;100470.00;;;;6311760;22;20242;-72
2023/12/10 09:26:21;;;;;;;6.63;2.03;;;10.50;99.90;11.50;100424.00;;;;6337574;22;20157;-72
2023/12/10 09:29:16;;;;;;;3.83;0.50;;;10.30;99.90;12.10;100462.00;;;;6337883;22;20224;-72
2023/12/10 09:31:57;;;;;;;1.40;0.63;;;10.50;99.90;12.30;100430.00;;;;6324580;22;20171;-70
2023/12/10 09:34:33;;;;;;;2.63;1.50;;;10.50;99.90;13.50;100469.00;;;;6312040;22;20162;-73
2023/12/10 09:37:41;;;;;;;2.90;1.07;;;11.00;99.90;12.20;100463.00;;;;6311454;22;20218;-72
2023/12/10 09:40:11;;;;;;;3.47;1.87;;;10.80;99.90;13.00;100437.00;;;;6335934;22;20169;-72
2023/12/10 09:42:40;;;;;;;3.77;1.73;;;10.80;99.90;12.10;100450.00;;;;6311900;22;20166;-73
2023/12/10 09:45:07;;;;;;;3.80;2.60;;;10.80;99.90;12.70;100455.00;;;;6337560;22;20579;-72
2023/12/10 09:48:01;;;;;;;0.10;0.10;;;10.90;99.90;13.00;100422.00;;;;6312081;22;20208;-72
2023/12/10 09:50:42;;;;;;;9.30;2.00;;;11.00;99.90;12.40;100462.00;;;;6337873;22;20155;-71
2023/12/10 09:53:14;;;;;;;8.37;2.10;;;11.00;99.90;12.30;100421.00;;;;6312049;22;20173;-71
2023/12/10 09:55:42;;;;;;;1.10;0.60;;;10.90;99.90;13.10;100442.00;;;;6311667;22;20162;-71
2023/12/10 09:58:31;;;;;;;5.03;1.07;;;11.10;99.90;12.50;100472.00;;;;6311465;22;20155;-71
2023/12/10 10:01:32;;;;;;;4.27;1.23;;;11.10;99.90;13.00;100492.00;;;;6317857;22;20220;-71
2023/12/10 10:04:02;;;;;;;3.03;2.03;;;11.20;99.90;12.60;100481.00;;;;6254957;22;20186;-71
2023/12/10 10:06:33;;;;;;;0.50;0.50;;;11.20;99.90;13.00;100486.00;;;;6280896;22;20149;-72
2023/12/10 10:09:04;;;;;;;10.13;1.83;;;11.20;99.90;12.30;100476.00;;;;6280476;22;20210;-72
2023/12/10 10:11:30;;;;;;;0.60;0.60;;;11.20;99.90;13.80;100467.00;;;;6280105;22;20166;-72
2023/12/10 10:13:58;;;;;;;10.33;1.50;;;11.30;99.90;12.80;100475.00;;;;6279890;22;20181;-71
2023/12/10 10:16:24;;;;;;;1.87;1.73;;;11.30;99.90;12.50;100463.00;;;;6280014;22;20554;-72
2023/12/10 10:19:28;;;;;;;4.90;2.37;;;11.00;99.90;12.80;100465.00;;;;6280586;22;20244;-72
2023/12/10 10:33:29;;;;;;;10.17;0.93;;;10.80;99.90;13.40;100420.00;;;;5059274;27;21173;-72
2023/12/10 10:35:56;;;;;;;2.03;1.70;;;11.20;99.90;14.40;100445.00;;;;5037148;28;20199;-72
2023/12/10 10:38:22;;;;;;;0.10;0.10;;;11.90;99.90;14.90;100453.00;;;;5029260;28;20669;-71
2023/12/10 10:40:58;;;;;;;0.10;0.10;;;12.20;99.90;16.10;100469.00;;;;5059430;28;20179;-71
2023/12/10 10:43:28;;;;;;;0.20;0.20;;;12.60;99.90;16.00;100476.00;;;;5064223;28;20185;-72
2023/12/10 10:45:54;;;;;;;0.67;0.67;;;12.80;99.90;14.80;100449.00;;;;5041074;28;20643;-70
2023/12/10 10:48:31;;;;;;;0.10;0.10;;;12.40;99.90;15.10;100458.00;;;;5036486;28;20185;-69
2023/12/10 10:50:57;;;;;;;1.37;0.40;;;12.40;99.90;15.20;100412.00;;;;5061746;28;20242;-70
2023/12/10 10:53:24;;;;;;;0.40;0.37;;;12.30;99.90;15.10;100447.00;;;;5058834;28;20182;-70
2023/12/10 10:55:50;;;;;;;0.20;0.20;;;12.30;99.90;15.30;100432.00;;;;5045066;28;20178;-70
2023/12/10 10:58:28;;;;;;;0.20;0.20;;;12.20;99.90;15.70;100414.00;;;;5045768;28;20190;-70
2023/12/10 11:00:58;;;;;;;0.67;0.30;;;12.60;99.90;14.80;100416.00;;;;5061661;28;20181;-69
2023/12/10 11:03:29;;;;;;;0.77;0.77;;;12.30;99.90;14.40;100417.00;;;;5045878;28;20194;-69
2023/12/10 11:06:00;;;;;;;0.10;0.10;;;12.10;99.90;14.30;100407.00;;;;5044854;28;20185;-69
2023/12/10 11:08:27;;;;;;;5.13;4.80;;;12.10;99.90;14.30;100397.00;;;;5045356;28;20235;-70
2023/12/10 11:11:00;;;;;;;3.00;1.80;;;12.00;99.90;14.00;100377.00;;;;5045453;28;20252;-70
2023/12/10 11:13:46;;;;;;;0.40;0.40;;;12.10;99.90;14.60;100362.00;;;;5042570;28;20199;-71
2023/12/10 11:16:18;;;;;;;0.10;0.10;;;12.00;99.90;14.40;100387.00;;;;5035381;28;20197;-71
2023/12/10 11:18:57;;;;;;;1.60;0.40;;;12.20;99.90;14.50;100378.00;;;;5045267;28;20700;-71
2023/12/10 11:21:24;;;;;;;1.00;0.90;;;12.20;99.90;15.40;100403.00;;;;5036154;28;20600;-68
2023/12/10 11:23:51;;;;;;;3.70;1.90;;;12.50;99.90;14.90;100397.00;;;;5059481;28;20214;-69
2023/12/10 11:26:17;;;;;;;0.30;0.30;;;12.60;99.90;15.50;100408.00;;;;5061091;28;20183;-68
2023/12/10 11:28:43;;;;;;;0.10;0.10;;;12.80;99.90;15.80;100399.00;;;;5029573;28;20671;-69
2023/12/10 11:31:10;;;;;;;0.20;0.20;;;12.80;99.90;15.30;100378.00;;;;5044727;28;20190;-69
2023/12/10 11:33:41;;;;;;;1.90;1.00;;;12.80;99.90;15.10;100374.00;;;;5029456;28;20194;-69
2023/12/10 11:36:10;;;;;;;0.20;0.20;;;12.70;99.90;15.70;100383.00;;;;5044036;28;20177;-68
2023/12/10 11:38:46;;;;;;;2.87;1.23;;;12.90;99.90;15.90;100375.00;;;;5044933;28;20193;-69
2023/12/10 11:41:13;;;;;;;4.33;1.63;;;13.10;99.90;15.00;100337.00;;;;5044346;28;20216;-69
2023/12/10 11:43:45;;;;;;;1.37;1.20;;;13.00;99.90;15.30;100348.00;;;;5022480;28;20646;-69
2023/12/10 11:46:32;;;;;;;0.10;0.10;;;12.80;99.90;15.00;100355.00;;;;5047317;28;20215;-69
2023/12/10 11:48:58;;;;;;;0.30;0.30;;;12.70;99.90;15.80;100365.00;;;;5011289;28;20197;-69
2023/12/10 11:51:25;;;;;;;0.30;0.30;;;12.90;99.90;15.20;100348.00;;;;5016188;28;20199;-69
2023/12/10 11:53:56;;;;;;;8.70;1.17;;;12.80;99.90;15.40;100343.00;;;;5047321;28;20656;-68
2023/12/10 11:56:22;;;;;;;0.10;0.10;;;12.80;99.90;14.90;100345.00;;;;5016144;28;20193;-69
2023/12/10 11:58:51;;;;;;;0.40;0.40;;;12.50;99.90;14.90;100354.00;;;;5014480;28;20869;-68
2023/12/10 12:01:23;;;;;;;0.60;0.43;;;12.60;99.90;15.00;100337.00;;;;5017517;28;20192;-70
2023/12/10 12:03:49;;;;;;;0.20;0.20;;;12.70;99.90;15.00;100333.00;;;;5042959;28;20266;-69
2023/12/10 12:06:18;;;;;;;3.60;1.53;;;12.50;99.90;14.00;100323.00;;;;5007445;28;20189;-69
2023/12/10 12:08:51;;;;;;;0.60;0.30;;;12.30;99.90;14.10;100296.00;;;;5015697;28;20637;-72
2023/12/10 12:11:17;;;;;;;1.57;1.47;;;12.10;99.90;14.40;100299.00;;;;5047336;28;20661;-68
2023/12/10 12:13:43;;;;;;;0.77;0.77;;;12.10;99.90;14.30;100302.00;;;;5030688;28;20192;-68
2023/12/10 12:16:38;;;;;;;14.30;3.70;;;12.10;99.90;15.00;100311.00;;;;5015684;28;20182;-69
2023/12/10 12:19:10;;;;;;;6.03;1.10;;;12.40;99.90;14.40;100336.00;;;;5001928;28;20651;-69
2023/12/10 12:21:37;;;;;;;0.80;0.80;;;12.50;99.90;15.00;100340.00;;;;5045394;28;20198;-69
2023/12/10 12:24:15;;;;;;;0.10;0.10;;;12.30;99.90;15.40;100356.00;;;;5014990;28;20194;-69
2023/12/10 12:27:07;;;;;;;7.03;2.57;;;12.50;99.90;14.80;100355.00;;;;5010520;28;20188;-70
2023/12/10 12:29:55;;;;;;;16.27;2.43;;;12.40;99.90;13.10;100340.00;;;;5019965;28;20204;-70
2023/12/10 12:32:34;;;;;;;2.60;1.03;;;11.70;99.90;14.70;100346.00;;;;5030198;28;20276;-69
2023/12/10 12:35:31;;;;;;;9.27;4.03;;;11.90;99.90;14.10;100317.00;;;;5030546;28;20207;-70
2023/12/10 12:38:29;;;;;;;21.17;5.07;;;12.00;99.90;12.90;100314.00;;;;5030301;28;20187;-70
2023/12/10 12:41:16;;;;;;;13.00;1.30;;;11.80;99.90;14.20;100321.00;;;;5037899;28;20179;-70
2023/12/10 12:43:48;;;;;;;14.70;1.00;;;11.80;99.90;13.90;100293.00;;;;5014520;28;20218;-70
2023/12/10 12:46:44;;;;;;;1.70;0.80;;;11.80;99.90;13.80;100293.00;;;;5030336;28;20187;-71
2023/12/10 12:49:20;;;;;;;2.17;0.90;;;11.80;99.90;13.60;100283.00;;;;5027426;28;20178;-70
2023/12/10 12:51:58;;;;;;;3.30;1.87;;;11.70;99.90;13.60;100292.00;;;;5029918;28;20211;-69
2023/12/10 12:55:04;;;;;;;0.50;0.50;;;11.70;99.90;13.50;100291.00;;;;5014161;28;20200;-71
2023/12/10 12:57:51;;;;;;;0.10;0.10;;;11.60;99.90;14.40;100291.00;;;;5046590;28;20238;-68
2023/12/10 13:00:21;;;;;;;1.43;1.20;;;11.90;99.90;14.20;100291.00;;;;5031539;28;20227;-68
2023/12/10 13:02:57;;;;;;;3.43;2.17;;;11.90;99.90;13.50;100283.00;;;;5013800;28;20643;-69
2023/12/10 13:05:48;;;;;;;1.17;1.17;;;11.80;99.90;14.70;100293.00;;;;5010355;28;20593;-69
2023/12/10 13:09:00;;;;;;;4.53;2.10;;;12.00;99.90;13.70;100296.00;;;;5023970;28;20664;-68
2023/12/10 13:12:00;;;;;;;1.27;1.17;;;11.90;99.90;14.50;100234.00;;;;4995929;28;20399;-68
2023/12/10 13:15:18;;;;;;;0.37;0.37;;;11.90;99.90;13.90;100260.00;;;;4994240;28;20198;-68
2023/12/10 13:18:05;;;;;;;1.47;1.37;;;11.80;99.90;14.30;100253.00;;;;4996275;28;20181;-71
2023/12/10 13:20:36;;;;;;;1.60;1.30;;;11.80;99.90;13.50;100250.00;;;;4979950;28;20654;-68
2023/12/10 13:23:14;;;;;;;1.90;1.03;;;11.70;99.90;14.00;100238.00;;;;4992014;28;20302;-71
2023/12/10 13:25:54;;;;;;;11.97;3.03;;;11.60;99.90;13.80;100218.00;;;;4993479;28;20180;-68
2023/12/10 13:29:02;;;;;;;3.60;2.50;;;11.50;99.90;13.50;100210.00;;;;5011909;28;20219;-69
2023/12/10 13:31:49;;;;;;;2.17;0.87;;;11.50;99.90;13.20;100187.00;;;;4971318;28;20350;-68
2023/12/10 13:34:27;;;;;;;0.87;0.83;;;11.30;99.90;12.80;100189.00;;;;5008599;28;20200;-68
2023/12/10 13:37:14;;;;;;;1.07;0.43;;;11.10;99.90;13.30;100211.00;;;;4995186;28;20187;-68
2023/12/10 13:39:49;;;;;;;0.83;0.77;;;11.10;99.90;12.90;100176.00;;;;4995256;28;20680;-68
2023/12/10 13:42:33;;;;;;;9.93;2.10;;;11.10;99.90;12.20;100177.00;;;;5012869;28;20215;-68
2023/12/10 13:45:04;;;;;;;0.80;0.60;;;10.90;99.90;12.90;100190.00;;;;5043476;28;20189;-68
2023/12/10 13:47:31;;;;;;;0.50;0.50;;;10.90;99.90;13.00;100196.00;;;;5044150;28;20527;-68
2023/12/10 13:49:57;;;;;;;5.40;0.83;;;11.00;99.90;13.10;100215.00;;;;5013392;28;20191;-70
2023/12/10 13:52:25;;;;;;;2.40;1.27;;;11.00;99.90;13.10;100211.00;;;;5013789;28;20251;-68
2023/12/10 13:54:52;;;;;;;0.20;0.20;;;11.00;99.90;14.00;100182.00;;;;5013367;28;20197;-69
2023/12/10 13:57:26;;;;;;;1.27;1.27;;;11.20;99.90;13.60;100135.00;;;;5029340;28;20184;-69
2023/12/10 13:59:55;;;;;;;0.20;0.20;;;11.10;99.90;13.00;100142.00;;;;5013539;28;20240;-69
2023/12/10 14:02:44;;;;;;;0.40;0.40;;;10.90;99.90;13.50;100162.00;;;;5028816;28;20183;-69
2023/12/10 14:05:35;;;;;;;1.03;0.43;;;10.90;99.90;12.10;100135.00;;;;5012804;28;20219;-69
2023/12/10 14:08:24;;;;;;;0.20;0.20;;;10.60;99.90;13.00;100154.00;;;;5004649;28;20227;-69
2023/12/10 14:10:56;;;;;;;0.10;0.10;;;10.60;99.90;13.70;100127.00;;;;5044502;28;20183;-69
2023/12/10 14:13:24;;;;;;;1.07;0.50;;;10.80;99.90;12.80;100110.00;;;;5044404;28;20218;-69
2023/12/10 14:15:54;;;;;;;0.20;0.20;;;10.80;99.90;13.20;100103.00;;;;5028776;28;20179;-69
2023/12/10 14:18:30;;;;;;;0.20;0.20;;;10.70;99.90;12.80;100105.00;;;;5028442;28;20636;-69
2023/12/10 14:20:58;;;;;;;0.63;0.37;;;10.60;99.90;12.80;100097.00;;;;5032402;28;20183;-69
2023/12/10 14:23:27;;;;;;;5.50;1.20;;;10.60;99.90;12.10;100079.00;;;;5013364;28;20201;-69
2023/12/10 14:26:00;;;;;;;6.90;1.43;;;10.40;99.90;12.20;100066.00;;;;5013377;28;20187;-71
2023/12/10 14:28:46;;;;;;;1.50;1.50;;;10.40;99.90;12.60;100042.00;;;;5021050;28;20187;-69
2023/12/10 14:31:17;;;;;;;0.53;0.53;;;10.40;99.90;12.20;100076.00;;;;5005567;28;20208;-68
2023/12/10 14:33:48;;;;;;;0.20;0.20;;;10.30;99.90;12.10;100070.00;;;;5004033;28;20245;-68
2023/12/10 14:36:20;;;;;;;0.40;0.40;;;10.30;99.90;12.10;100049.00;;;;5013021;28;20241;-68
2023/12/10 14:38:48;;;;;;;2.63;1.23;;;10.20;99.90;12.80;100045.00;;;;5045306;28;20551;-68
2023/12/10 14:41:20;;;;;;;27.57;1.80;;;10.50;99.90;12.80;100030.00;;;;5044937;28;20180;-68
2023/12/10 14:43:52;;;;;;;5.00;0.77;;;10.50;99.90;12.30;100027.00;;;;5044930;28;20187;-68
2023/12/10 14:46:22;;;;;;;0.27;0.27;;;10.40;99.90;12.70;100018.00;;;;5028043;28;20211;-68
2023/12/10 14:48:55;;;;;;;5.13;2.13;;;10.50;99.90;12.70;100004.00;;;;5021107;28;20195;-68
2023/12/10 14:51:27;;;;;;;0.90;0.90;;;10.60;99.90;12.10;99980.00;;;;5006101;28;20180;-68
2023/12/10 14:54:31;;;;;;;3.70;1.13;;;10.30;99.90;12.50;99963.00;;;;5026769;28;20195;-68
2023/12/10 14:57:00;;;;;;;0.40;0.40;;;10.40;99.90;12.70;99953.00;;;;4983715;28;20286;-69
2023/12/10 14:59:29;;;;;;;2.23;0.70;;;10.50;99.90;12.00;99960.00;;;;5045118;28;20186;-69
2023/12/10 15:02:22;;;;;;;4.70;1.80;;;10.40;99.90;12.50;99944.00;;;;5028099;28;20214;-69
2023/12/10 15:05:00;;;;;;;0.47;0.30;;;10.40;99.90;12.40;99953.00;;;;5016780;28;20913;-69
2023/12/10 15:07:34;;;;;;;5.57;1.40;;;10.40;99.90;12.30;99963.00;;;;5009104;28;20179;-68
2023/12/10 15:10:12;;;;;;;3.07;1.33;;;10.40;99.90;12.40;99954.00;;;;5027906;28;20198;-69
2023/12/10 15:12:49;;;;;;;5.93;0.53;;;10.40;99.90;12.60;99946.00;;;;5043706;28;20349;-69
2023/12/10 15:15:24;;;;;;;0.20;0.20;;;10.50;99.90;12.80;99957.00;;;;5028259;28;20224;-69
2023/12/10 15:17:58;;;;;;;1.60;1.03;;;10.50;99.90;12.00;99951.00;;;;5026175;28;20186;-69
2023/12/10 15:20:24;;;;;;;0.23;0.23;;;10.40;99.90;12.40;99961.00;;;;5047886;28;20191;-69
2023/12/10 15:22:52;;;;;;;0.67;0.40;;;10.50;99.90;12.50;99928.00;;;;5020830;28;20220;-69
2023/12/10 15:25:27;;;;;;;1.80;0.47;;;10.40;99.90;12.30;99955.00;;;;5015085;28;20203;-69
2023/12/10 15:27:53;;;;;;;0.93;0.57;;;10.50;99.90;12.20;99913.00;;;;5021399;28;20515;-69
2023/12/10 15:30:27;;;;;;;1.67;0.73;;;10.40;99.90;12.50;99935.00;;;;5048281;28;20188;-69
2023/12/10 15:32:53;;;;;;;5.00;1.17;;;10.40;99.90;12.10;99892.00;;;;5038120;28;20707;-69
2023/12/10 15:35:23;;;;;;;1.83;1.33;;;10.30;99.90;12.30;99879.00;;;;5038943;28;20271;-69
2023/12/10 15:38:00;;;;;;;3.80;1.43;;;10.30;99.90;11.40;99827.00;;;;5028475;28;20196;-69
2023/12/10 15:40:34;;;;;;;2.70;1.43;;;10.10;99.90;11.40;99809.00;;;;5031691;28;20188;-69
2023/12/10 15:43:08;;;;;;;9.57;2.07;;;9.90;99.90;11.30;99795.00;;;;5015802;28;20505;-69
2023/12/10 15:45:45;;;;;;;3.47;1.90;;;9.80;99.90;11.30;99758.00;;;;5015008;28;20187;-69
2023/12/10 15:48:16;;;;;;;1.23;1.13;;;9.70;99.90;11.20;99766.00;;;;5047933;28;20286;-70
2023/12/10 15:50:47;;;;;;;2.57;2.17;;;9.70;99.90;11.20;99758.00;;;;5003699;28;20548;-69
2023/12/10 15:53:18;;;;;;;3.97;1.97;;;9.60;99.90;11.30;99785.00;;;;5015836;28;20225;-69
2023/12/10 15:55:45;;;;;;;2.47;1.03;;;9.60;99.90;11.20;99779.00;;;;5005962;28;20565;-69
2023/12/10 15:58:11;;;;;;;1.17;1.17;;;9.60;99.90;11.20;99776.00;;;;5031078;28;20192;-69
2023/12/10 16:00:37;;;;;;;3.57;3.23;;;9.50;99.90;11.30;99756.00;;;;5047722;28;20226;-69
2023/12/10 16:03:09;;;;;;;1.13;1.13;;;9.60;99.90;11.50;99772.00;;;;5015578;28;20221;-69
2023/12/10 16:05:35;;;;;;;2.00;1.30;;;9.60;99.90;11.60;99760.00;;;;5046642;28;20186;-69
2023/12/10 16:08:04;;;;;;;1.13;1.03;;;9.60;99.90;11.20;99753.00;;;;5015584;28;20189;-69
2023/12/10 16:10:34;;;;;;;2.93;1.00;;;9.60;99.90;10.90;99733.00;;;;5015803;28;20641;-69
2023/12/10 16:13:00;;;;;;;9.97;2.73;;;9.50;99.90;10.80;99726.00;;;;5015363;28;20678;-69
2023/12/10 16:15:27;;;;;;;1.77;0.97;;;9.50;99.90;11.40;99721.00;;;;5008864;28;20548;-69
2023/12/10 16:18:01;;;;;;;4.17;1.30;;;9.50;99.90;11.10;99713.00;;;;5047431;28;20201;-69
2023/12/10 16:20:33;;;;;;;2.07;1.43;;;9.50;99.90;11.10;99715.00;;;;5047038;28;20167;-69
2023/12/10 16:23:02;;;;;;;0.93;0.93;;;9.50;99.90;11.10;99693.00;;;;5015451;28;20183;-69
2023/12/10 16:25:31;;;;;;;3.70;0.80;;;9.50;99.90;11.40;99688.00;;;;5014133;28;20199;-69
2023/12/10 16:28:21;;;;;;;0.80;0.80;;;9.60;99.90;11.00;99680.00;;;;5014962;28;20188;-69
2023/12/10 16:30:53;;;;;;;1.07;0.90;;;9.50;99.90;11.10;99689.00;;;;5006365;28;20650;-70
2023/12/10 16:33:31;;;;;;;3.13;1.80;;;9.50;99.90;11.20;99658.00;;;;5015647;28;20228;-70
2023/12/10 16:36:00;;;;;;;1.90;1.57;;;9.60;99.90;10.90;99650.00;;;;5030582;28;20185;-69
2023/12/10 16:38:52;;;;;;;4.43;1.33;;;9.50;99.90;10.80;99673.00;;;;5019114;28;20658;-69
2023/12/10 16:41:21;;;;;;;10.23;3.37;;;9.50;99.90;10.80;99681.00;;;;5023781;28;20664;-70
2023/12/10 16:43:56;;;;;;;2.23;1.00;;;9.50;99.90;11.20;99667.00;;;;5045829;28;20192;-70
2023/12/10 16:46:22;;;;;;;1.23;0.77;;;9.50;99.90;10.90;99659.00;;;;5030500;28;20192;-70
2023/12/10 16:48:51;;;;;;;2.53;0.70;;;9.50;99.90;11.20;99647.00;;;;5046811;28;20220;-70
2023/12/10 16:51:36;;;;;;;2.17;0.80;;;9.50;99.90;11.20;99651.00;;;;5030051;28;20257;-70
2023/12/10 16:54:07;;;;;;;1.33;1.00;;;9.50;99.90;11.60;99655.00;;;;5029914;28;20187;-70
2023/12/10 16:56:41;;;;;;;1.93;1.13;;;9.60;99.90;11.30;99646.00;;;;5047199;28;20197;-70
2023/12/10 16:59:10;;;;;;;0.30;0.30;;;9.60;99.90;11.50;99644.00;;;;5029607;28;20333;-70
2023/12/10 17:01:43;;;;;;;2.20;1.00;;;9.60;99.90;11.60;99631.00;;;;5011403;28;20227;-70
2023/12/10 17:04:27;;;;;;;1.90;1.33;;;9.70;99.90;11.60;99615.00;;;;5041718;28;20193;-70
2023/12/10 17:06:56;;;;;;;2.53;1.40;;;9.70;99.90;11.40;99596.00;;;;5029800;28;20193;-70
2023/12/10 17:09:31;;;;;;;0.67;0.67;;;9.70;99.90;11.40;99607.00;;;;5012683;28;20188;-70
2023/12/10 17:12:00;;;;;;;5.33;1.10;;;9.70;99.90;11.60;99563.00;;;;5029287;28;20668;-70
2023/12/10 17:14:36;;;;;;;0.90;0.87;;;9.80;99.90;11.30;99583.00;;;;5035260;28;20192;-70
2023/12/10 17:20:13;;;;;;;1.47;0.60;;;9.80;99.90;11.50;99599.00;;;;5023720;28;20677;-70
2023/12/10 17:23:00;;;;;;;1.27;0.80;;;9.80;99.90;11.30;99590.00;;;;5005131;28;20379;-70
2023/12/10 17:25:41;;;;;;;1.37;0.97;;;9.80;99.90;11.70;99618.00;;;;5009909;28;20187;-70
2023/12/10 17:28:31;;;;;;;2.53;0.60;;;9.90;99.90;11.80;99616.00;;;;5012293;28;20215;-70
2023/12/10 17:31:05;;;;;;;0.30;0.30;;;10.00;99.90;12.40;99629.00;;;;5006664;28;20196;-70
2023/12/10 17:33:49;;;;;;;0.30;0.30;;;10.20;99.90;12.50;99607.00;;;;5018228;28;20199;-70
2023/12/10 17:36:27;;;;;;;0.30;0.30;;;10.20;99.90;12.50;99616.00;;;;5014744;28;20214;-70
2023/12/10 17:39:19;;;;;;;2.27;1.77;;;10.40;99.90;12.40;99608.00;;;;5039552;28;20209;-69
2023/12/10 17:41:49;;;;;;;0.60;0.60;;;10.40;99.90;12.20;99608.00;;;;5012164;28;20187;-70
2023/12/10 17:44:30;;;;;;;0.40;0.40;;;10.50;99.90;12.60;99578.00;;;;5013047;28;20183;-70
2023/12/10 17:47:07;;;;;;;0.53;0.53;;;10.50;99.90;12.90;99565.00;;;;5012520;28;20729;-70
2023/12/10 17:49:44;;;;;;;0.40;0.40;;;10.70;99.90;13.00;99582.00;;;;5013519;28;20706;-70
2023/12/10 17:52:20;;;;;;;5.73;0.90;;;10.80;99.90;13.00;99594.00;;;;5029271;28;20207;-70
2023/12/10 17:54:46;;;;;;;2.83;1.00;;;10.90;99.90;13.60;99573.00;;;;5013657;28;20196;-70
2023/12/10 17:57:12;;;;;;;0.60;0.60;;;11.20;99.90;13.50;99584.00;;;;5028525;28;20619;-71
2023/12/10 17:59:46;;;;;;;0.40;0.40;;;11.20;99.90;13.70;99588.00;;;;5013841;28;20514;-69
2023/12/10 18:02:21;;;;;;;1.70;0.90;;;11.30;99.90;12.90;99580.00;;;;5005719;28;20195;-69
2023/12/10 18:05:05;;;;;;;1.03;0.93;;;11.20;99.90;13.30;99557.00;;;;5028603;28;20186;-70
2023/12/10 18:07:54;;;;;;;1.07;1.07;;;11.40;99.90;13.80;99611.00;;;;5017808;28;20196;-69
2023/12/10 18:10:40;;;;;;;0.87;0.77;;;11.50;99.90;12.80;99604.00;;;;5022966;28;20276;-69
2023/12/10 18:13:36;;;;;;;0.80;0.80;;;11.40;99.90;13.20;99614.00;;;;5028552;28;20207;-69
2023/12/10 18:16:24;;;;;;;4.40;1.77;;;11.60;99.90;13.10;99634.00;;;;5011919;28;20270;-69
2023/12/10 18:19:49;;;;;;;0.50;0.50;;;11.50;99.90;13.20;99618.00;;;;5013494;28;20605;-69
2023/12/10 18:22:37;;;;;;;1.40;0.90;;;11.60;99.90;13.70;99617.00;;;;5022748;28;20611;-69
2023/12/10 18:25:09;;;;;;;1.50;1.30;;;11.70;99.90;13.60;99619.00;;;;5026491;28;20194;-69
2023/12/10 18:27:40;;;;;;;1.37;1.27;;;11.70;99.90;12.90;99619.00;;;;5011340;28;20546;-69
2023/12/10 18:30:20;;;;;;;2.03;1.50;;;11.80;99.90;13.20;99628.00;;;;5022347;28;20197;-69
2023/12/10 18:32:51;;;;;;;3.23;1.17;;;11.80;99.90;13.20;99624.00;;;;5005829;28;20664;-69
2023/12/10 18:35:21;;;;;;;3.63;2.03;;;11.90;99.90;13.10;99639.00;;;;5028775;28;20612;-69
2023/12/10 18:37:53;;;;;;;1.17;1.07;;;11.80;99.90;12.60;99645.00;;;;5027934;28;20271;-68
2023/12/10 18:40:43;;;;;;;2.13;1.93;;;11.80;99.90;13.10;99638.00;;;;5017808;28;20196;-69
2023/12/10 18:43:09;;;;;;;1.30;1.20;;;11.80;99.90;13.30;99645.00;;;;5045557;28;20192;-68
2023/12/10 18:45:45;;;;;;;7.60;2.03;;;11.90;99.90;13.50;99630.00;;;;5012052;28;20182;-69
2023/12/10 18:48:26;;;;;;;1.57;1.47;;;12.00;99.90;14.00;99623.00;;;;5010696;28;20206;-69
2023/12/10 18:50:57;;;;;;;1.70;1.07;;;12.00;99.90;13.40;99622.00;;;;5009882;28;20258;-69